Alden Manor, New York
Current Conditions -  °F | °C
As of 1:51 AM on Thursday 18 Dec 2014 (Local Time) from KJFK Reporting Station
Overcast Overcast  
Wind Chill:   Ceiling: 4400
Heat Index:   Visibility: 10mi
Dew Point: -3°   Wind: 15mph
Humidity: 55%   Direction: 270°W
Pressure: 29.9"   Gusts: NA
Location:  40.7013°N, 73.7074°W
Report Text: KJFK 180651Z 27013KT 10SM OVC044 05/M03 A2990 RMK AO2 SLP125 T00501033
Loading
Personal Weather Stations






























Interactive Weather Map New forecast layout! Learn more

10-Day Weather Forecast

Advertisements
Track Severe Weather on mobile